sensor_id;sensor_type;location;lat;lon;timestamp;temperature;humidity
352;DHT22;164;50.784;6.496;2022-10-16T00:00:32;15.00;1.00
352;DHT22;164;50.784;6.496;2022-10-16T00:03:00;15.00;1.00
352;DHT22;164;50.784;6.496;2022-10-16T00:05:28;15.00;1.00
352;DHT22;164;50.784;6.496;2022-10-16T00:07:55;15.00;1.00
352;DHT22;164;50.784;6.496;2022-10-16T00:10:22;15.00;1.00
352;DHT22;164;50.784;6.496;2022-10-16T00:12:49;15.00;1.00
352;DHT22;164;50.784;6.496;2022-10-16T00:15:17;14.90;1.00
352;DHT22;164;50.784;6.496;2022-10-16T00:17:44;14.90;1.00
352;DHT22;164;50.784;6.496;2022-10-16T00:20:11;15.00;1.00
352;DHT22;164;50.784;6.496;2022-10-16T00:22:38;15.00;1.00
352;DHT22;164;50.784;6.496;2022-10-16T00:25:06;15.00;1.00
352;DHT22;164;50.784;6.496;2022-10-16T00:27:33;15.00;1.00
352;DHT22;164;50.784;6.496;2022-10-16T00:30:00;15.00;1.00
352;DHT22;164;50.784;6.496;2022-10-16T00:32:29;14.90;1.00
352;DHT22;164;50.784;6.496;2022-10-16T00:34:56;14.90;1.00
352;DHT22;164;50.784;6.496;2022-10-16T00:37:23;14.80;1.00
352;DHT22;164;50.784;6.496;2022-10-16T00:39:50;14.80;1.00
352;DHT22;164;50.784;6.496;2022-10-16T00:42:18;14.70;1.00
352;DHT22;164;50.784;6.496;2022-10-16T00:44:48;14.70;1.00
352;DHT22;164;50.784;6.496;2022-10-16T00:47:21;14.70;1.00
352;DHT22;164;50.784;6.496;2022-10-16T00:49:53;14.70;1.00
352;DHT22;164;50.784;6.496;2022-10-16T00:52:21;14.70;1.00
352;DHT22;164;50.784;6.496;2022-10-16T00:54:49;14.70;1.00
352;DHT22;164;50.784;6.496;2022-10-16T00:57:17;14.70;1.00
352;DHT22;164;50.784;6.496;2022-10-16T00:59:44;14.70;1.00
352;DHT22;164;50.784;6.496;2022-10-16T01:02:13;14.80;1.00
352;DHT22;164;50.784;6.496;2022-10-16T01:04:43;14.80;1.00
352;DHT22;164;50.784;6.496;2022-10-16T01:07:18;14.80;1.00
352;DHT22;164;50.784;6.496;2022-10-16T01:09:57;14.80;1.00
352;DHT22;164;50.784;6.496;2022-10-16T01:12:38;14.80;1.00
352;DHT22;164;50.784;6.496;2022-10-16T01:15:10;14.70;1.00
352;DHT22;164;50.784;6.496;2022-10-16T01:17:43;14.80;1.00
352;DHT22;164;50.784;6.496;2022-10-16T01:20:16;14.70;1.00
352;DHT22;164;50.784;6.496;2022-10-16T01:22:59;14.80;1.00
352;DHT22;164;50.784;6.496;2022-10-16T01:28:27;14.80;1.00
352;DHT22;164;50.784;6.496;2022-10-16T01:30:58;14.70;1.00
352;DHT22;164;50.784;6.496;2022-10-16T01:33:29;14.80;1.00
352;DHT22;164;50.784;6.496;2022-10-16T01:36:01;14.80;1.00
352;DHT22;164;50.784;6.496;2022-10-16T01:38:33;14.80;1.00
352;DHT22;164;50.784;6.496;2022-10-16T01:41:04;14.80;1.00
352;DHT22;164;50.784;6.496;2022-10-16T01:43:37;14.80;1.00
352;DHT22;164;50.784;6.496;2022-10-16T01:46:06;14.80;1.00
352;DHT22;164;50.784;6.496;2022-10-16T01:48:34;14.80;1.00
352;DHT22;164;50.784;6.496;2022-10-16T01:51:05;14.90;1.00
352;DHT22;164;50.784;6.496;2022-10-16T01:53:33;14.90;1.00
352;DHT22;164;50.784;6.496;2022-10-16T01:56:02;15.00;1.00
352;DHT22;164;50.784;6.496;2022-10-16T01:58:36;15.00;1.00
352;DHT22;164;50.784;6.496;2022-10-16T02:01:08;15.00;1.00
352;DHT22;164;50.784;6.496;2022-10-16T02:03:37;15.10;1.00
352;DHT22;164;50.784;6.496;2022-10-16T02:06:06;15.10;1.00
352;DHT22;164;50.784;6.496;2022-10-16T02:08:35;15.10;1.00
352;DHT22;164;50.784;6.496;2022-10-16T02:11:03;15.10;1.00
352;DHT22;164;50.784;6.496;2022-10-16T02:13:33;15.20;1.00
352;DHT22;164;50.784;6.496;2022-10-16T02:16:02;15.20;1.00
352;DHT22;164;50.784;6.496;2022-10-16T02:18:29;15.20;1.00
352;DHT22;164;50.784;6.496;2022-10-16T02:20:59;15.20;1.00
352;DHT22;164;50.784;6.496;2022-10-16T02:23:34;15.20;1.00
352;DHT22;164;50.784;6.496;2022-10-16T02:26:04;15.20;1.00
352;DHT22;164;50.784;6.496;2022-10-16T02:28:38;15.20;1.00
352;DHT22;164;50.784;6.496;2022-10-16T02:31:10;15.30;1.00
352;DHT22;164;50.784;6.496;2022-10-16T02:33:40;15.20;1.00
352;DHT22;164;50.784;6.496;2022-10-16T02:36:09;15.20;1.00
352;DHT22;164;50.784;6.496;2022-10-16T02:38:36;15.20;1.00
352;DHT22;164;50.784;6.496;2022-10-16T02:41:04;15.20;1.00
352;DHT22;164;50.784;6.496;2022-10-16T02:43:31;15.20;1.00
352;DHT22;164;50.784;6.496;2022-10-16T02:45:59;15.10;1.00
352;DHT22;164;50.784;6.496;2022-10-16T02:48:28;15.10;1.00
352;DHT22;164;50.784;6.496;2022-10-16T02:50:54;15.00;1.00
352;DHT22;164;50.784;6.496;2022-10-16T02:53:22;15.00;1.00
352;DHT22;164;50.784;6.496;2022-10-16T02:55:49;14.90;1.00
352;DHT22;164;50.784;6.496;2022-10-16T02:58:16;14.90;1.00
352;DHT22;164;50.784;6.496;2022-10-16T03:00:43;14.90;1.00
352;DHT22;164;50.784;6.496;2022-10-16T03:03:10;14.90;1.00
352;DHT22;164;50.784;6.496;2022-10-16T03:05:38;14.90;1.00
352;DHT22;164;50.784;6.496;2022-10-16T03:08:05;14.90;1.00
352;DHT22;164;50.784;6.496;2022-10-16T03:10:32;14.90;1.00
352;DHT22;164;50.784;6.496;2022-10-16T03:13:08;14.90;1.00
352;DHT22;164;50.784;6.496;2022-10-16T03:15:36;14.90;1.00
352;DHT22;164;50.784;6.496;2022-10-16T03:18:03;14.90;1.00
352;DHT22;164;50.784;6.496;2022-10-16T03:20:29;14.90;1.00
352;DHT22;164;50.784;6.496;2022-10-16T03:22:58;14.90;1.00
352;DHT22;164;50.784;6.496;2022-10-16T03:25:25;14.90;1.00
352;DHT22;164;50.784;6.496;2022-10-16T03:27:52;14.90;1.00
352;DHT22;164;50.784;6.496;2022-10-16T03:30:19;14.90;1.00
352;DHT22;164;50.784;6.496;2022-10-16T03:32:46;14.90;1.00
352;DHT22;164;50.784;6.496;2022-10-16T03:35:13;14.90;1.00
352;DHT22;164;50.784;6.496;2022-10-16T03:37:40;14.90;1.00
352;DHT22;164;50.784;6.496;2022-10-16T03:40:09;14.90;1.00
352;DHT22;164;50.784;6.496;2022-10-16T03:42:36;15.00;1.00
352;DHT22;164;50.784;6.496;2022-10-16T03:45:04;15.00;1.00
352;DHT22;164;50.784;6.496;2022-10-16T03:47:31;15.10;1.00
352;DHT22;164;50.784;6.496;2022-10-16T03:49:59;15.10;1.00
352;DHT22;164;50.784;6.496;2022-10-16T03:52:26;15.10;1.00
352;DHT22;164;50.784;6.496;2022-10-16T03:54:53;15.10;1.00
352;DHT22;164;50.784;6.496;2022-10-16T03:57:21;15.10;1.00
352;DHT22;164;50.784;6.496;2022-10-16T03:59:48;15.20;1.00
352;DHT22;164;50.784;6.496;2022-10-16T04:02:15;15.20;1.00
352;DHT22;164;50.784;6.496;2022-10-16T04:04:42;15.20;1.00
352;DHT22;164;50.784;6.496;2022-10-16T04:07:10;15.10;1.00
352;DHT22;164;50.784;6.496;2022-10-16T04:09:37;15.10;1.00
352;DHT22;164;50.784;6.496;2022-10-16T04:12:04;15.10;1.00
352;DHT22;164;50.784;6.496;2022-10-16T04:14:32;15.10;1.00
352;DHT22;164;50.784;6.496;2022-10-16T04:16:59;15.00;1.00
352;DHT22;164;50.784;6.496;2022-10-16T04:19:26;15.00;1.00
352;DHT22;164;50.784;6.496;2022-10-16T04:21:53;14.90;1.00
352;DHT22;164;50.784;6.496;2022-10-16T04:24:20;14.90;1.00
352;DHT22;164;50.784;6.496;2022-10-16T04:26:47;14.90;1.00
352;DHT22;164;50.784;6.496;2022-10-16T04:29:14;14.90;1.00
352;DHT22;164;50.784;6.496;2022-10-16T04:31:42;14.80;1.00
352;DHT22;164;50.784;6.496;2022-10-16T04:34:09;14.80;1.00
352;DHT22;164;50.784;6.496;2022-10-16T04:36:36;14.80;1.00
352;DHT22;164;50.784;6.496;2022-10-16T04:39:03;14.70;1.00
352;DHT22;164;50.784;6.496;2022-10-16T04:41:30;14.70;1.00
352;DHT22;164;50.784;6.496;2022-10-16T04:43:57;14.60;1.00
352;DHT22;164;50.784;6.496;2022-10-16T04:46:24;14.60;1.00
352;DHT22;164;50.784;6.496;2022-10-16T04:48:52;14.50;1.00
352;DHT22;164;50.784;6.496;2022-10-16T04:51:21;14.50;1.00
352;DHT22;164;50.784;6.496;2022-10-16T04:53:47;14.50;1.00
352;DHT22;164;50.784;6.496;2022-10-16T04:56:14;14.50;1.00
352;DHT22;164;50.784;6.496;2022-10-16T04:58:41;14.40;1.00
352;DHT22;164;50.784;6.496;2022-10-16T05:01:09;14.40;1.00
352;DHT22;164;50.784;6.496;2022-10-16T05:03:36;14.40;1.00
352;DHT22;164;50.784;6.496;2022-10-16T05:06:05;14.40;1.00
352;DHT22;164;50.784;6.496;2022-10-16T05:08:33;14.40;1.00
352;DHT22;164;50.784;6.496;2022-10-16T05:11:00;14.40;1.00
352;DHT22;164;50.784;6.496;2022-10-16T05:13:27;14.30;1.00
352;DHT22;164;50.784;6.496;2022-10-16T05:15:54;14.30;1.00
352;DHT22;164;50.784;6.496;2022-10-16T05:18:20;14.30;1.00
352;DHT22;164;50.784;6.496;2022-10-16T05:20:47;14.30;1.00
352;DHT22;164;50.784;6.496;2022-10-16T05:23:16;14.30;1.00
352;DHT22;164;50.784;6.496;2022-10-16T05:25:42;14.30;1.00
352;DHT22;164;50.784;6.496;2022-10-16T05:28:09;14.40;1.00
352;DHT22;164;50.784;6.496;2022-10-16T05:30:37;14.40;1.00
352;DHT22;164;50.784;6.496;2022-10-16T05:33:04;14.40;1.00
352;DHT22;164;50.784;6.496;2022-10-16T05:35:31;14.40;1.00
352;DHT22;164;50.784;6.496;2022-10-16T05:37:58;14.30;1.00
352;DHT22;164;50.784;6.496;2022-10-16T05:40:26;14.30;1.00
352;DHT22;164;50.784;6.496;2022-10-16T05:42:55;14.20;1.00
352;DHT22;164;50.784;6.496;2022-10-16T05:45:22;14.10;1.00
352;DHT22;164;50.784;6.496;2022-10-16T05:47:49;14.00;1.00
352;DHT22;164;50.784;6.496;2022-10-16T05:50:16;13.90;1.00
352;DHT22;164;50.784;6.496;2022-10-16T05:52:44;13.80;1.00
352;DHT22;164;50.784;6.496;2022-10-16T05:55:10;13.80;1.00
352;DHT22;164;50.784;6.496;2022-10-16T05:57:39;13.70;1.00
352;DHT22;164;50.784;6.496;2022-10-16T06:00:07;13.60;1.00
352;DHT22;164;50.784;6.496;2022-10-16T06:02:34;13.50;1.00
352;DHT22;164;50.784;6.496;2022-10-16T06:05:01;13.50;1.00
352;DHT22;164;50.784;6.496;2022-10-16T06:07:28;13.40;1.00
352;DHT22;164;50.784;6.496;2022-10-16T06:09:55;13.40;1.00
352;DHT22;164;50.784;6.496;2022-10-16T06:12:22;13.30;2.30
352;DHT22;164;50.784;6.496;2022-10-16T06:14:50;13.30;5.70
352;DHT22;164;50.784;6.496;2022-10-16T06:17:17;13.30;7.00
352;DHT22;164;50.784;6.496;2022-10-16T06:19:44;13.30;9.00
352;DHT22;164;50.784;6.496;2022-10-16T06:22:11;13.30;11.10
352;DHT22;164;50.784;6.496;2022-10-16T06:24:38;13.40;13.60
352;DHT22;164;50.784;6.496;2022-10-16T06:27:05;13.40;15.10
352;DHT22;164;50.784;6.496;2022-10-16T06:29:33;13.40;16.90
352;DHT22;164;50.784;6.496;2022-10-16T06:32:01;13.50;24.80
352;DHT22;164;50.784;6.496;2022-10-16T06:34:28;13.80;29.30
352;DHT22;164;50.784;6.496;2022-10-16T06:36:55;13.80;23.30
352;DHT22;164;50.784;6.496;2022-10-16T06:39:22;13.90;20.60
352;DHT22;164;50.784;6.496;2022-10-16T06:41:49;13.90;17.70
352;DHT22;164;50.784;6.496;2022-10-16T06:44:16;14.00;12.70
352;DHT22;164;50.784;6.496;2022-10-16T06:46:43;14.00;8.40
352;DHT22;164;50.784;6.496;2022-10-16T06:49:11;14.00;4.60
352;DHT22;164;50.784;6.496;2022-10-16T06:51:39;14.10;5.40
352;DHT22;164;50.784;6.496;2022-10-16T06:54:07;14.20;1.00
352;DHT22;164;50.784;6.496;2022-10-16T06:56:34;14.20;1.00
352;DHT22;164;50.784;6.496;2022-10-16T06:59:02;14.30;1.00
352;DHT22;164;50.784;6.496;2022-10-16T07:01:29;14.40;1.00
352;DHT22;164;50.784;6.496;2022-10-16T07:03:57;14.50;1.00
352;DHT22;164;50.784;6.496;2022-10-16T07:06:26;14.60;1.00
352;DHT22;164;50.784;6.496;2022-10-16T07:08:53;14.60;1.00
352;DHT22;164;50.784;6.496;2022-10-16T07:11:22;14.60;1.00
352;DHT22;164;50.784;6.496;2022-10-16T07:13:50;14.60;1.00
352;DHT22;164;50.784;6.496;2022-10-16T07:16:19;14.70;1.00
352;DHT22;164;50.784;6.496;2022-10-16T07:18:47;14.70;1.00
352;DHT22;164;50.784;6.496;2022-10-16T07:21:16;14.80;1.00
352;DHT22;164;50.784;6.496;2022-10-16T07:23:50;14.80;1.00
352;DHT22;164;50.784;6.496;2022-10-16T07:26:17;14.80;1.00
352;DHT22;164;50.784;6.496;2022-10-16T07:28:44;14.80;1.00
352;DHT22;164;50.784;6.496;2022-10-16T07:31:13;14.80;1.00
352;DHT22;164;50.784;6.496;2022-10-16T07:33:42;14.80;1.00
352;DHT22;164;50.784;6.496;2022-10-16T07:36:10;14.70;1.00
352;DHT22;164;50.784;6.496;2022-10-16T07:38:37;14.70;1.00
352;DHT22;164;50.784;6.496;2022-10-16T07:41:07;14.70;1.00
352;DHT22;164;50.784;6.496;2022-10-16T07:43:35;14.70;1.00
352;DHT22;164;50.784;6.496;2022-10-16T07:46:02;14.70;1.00
352;DHT22;164;50.784;6.496;2022-10-16T07:48:32;14.70;1.00
352;DHT22;164;50.784;6.496;2022-10-16T07:50:59;14.70;1.00
352;DHT22;164;50.784;6.496;2022-10-16T07:53:26;14.60;1.00
352;DHT22;164;50.784;6.496;2022-10-16T07:55:57;14.60;1.00
352;DHT22;164;50.784;6.496;2022-10-16T07:58:25;14.70;1.00
352;DHT22;164;50.784;6.496;2022-10-16T08:00:52;14.70;1.00
352;DHT22;164;50.784;6.496;2022-10-16T08:03:19;14.80;1.00
352;DHT22;164;50.784;6.496;2022-10-16T08:05:46;14.80;1.00
352;DHT22;164;50.784;6.496;2022-10-16T08:08:15;14.80;1.00
352;DHT22;164;50.784;6.496;2022-10-16T08:10:42;14.90;1.00
352;DHT22;164;50.784;6.496;2022-10-16T08:13:09;14.90;1.00
352;DHT22;164;50.784;6.496;2022-10-16T08:15:38;15.00;1.00
352;DHT22;164;50.784;6.496;2022-10-16T08:18:05;15.00;1.00
352;DHT22;164;50.784;6.496;2022-10-16T08:20:32;15.10;1.00
352;DHT22;164;50.784;6.496;2022-10-16T08:23:00;15.20;1.00
352;DHT22;164;50.784;6.496;2022-10-16T08:25:27;15.20;1.00
352;DHT22;164;50.784;6.496;2022-10-16T08:27:54;15.30;1.00
352;DHT22;164;50.784;6.496;2022-10-16T08:30:22;15.40;1.00
352;DHT22;164;50.784;6.496;2022-10-16T08:32:51;15.40;1.00
352;DHT22;164;50.784;6.496;2022-10-16T08:35:19;15.50;1.00
352;DHT22;164;50.784;6.496;2022-10-16T08:37:46;15.60;1.00
352;DHT22;164;50.784;6.496;2022-10-16T08:40:18;15.70;1.00
352;DHT22;164;50.784;6.496;2022-10-16T08:43:08;15.80;1.00
352;DHT22;164;50.784;6.496;2022-10-16T08:45:46;15.90;1.00
352;DHT22;164;50.784;6.496;2022-10-16T08:48:21;15.90;1.00
352;DHT22;164;50.784;6.496;2022-10-16T08:50:51;16.00;1.00
352;DHT22;164;50.784;6.496;2022-10-16T08:53:22;16.10;1.00
352;DHT22;164;50.784;6.496;2022-10-16T08:55:51;16.20;1.00
352;DHT22;164;50.784;6.496;2022-10-16T08:58:20;16.20;1.00
352;DHT22;164;50.784;6.496;2022-10-16T09:00:48;16.30;1.00
352;DHT22;164;50.784;6.496;2022-10-16T09:03:30;16.40;1.00
352;DHT22;164;50.784;6.496;2022-10-16T09:06:21;16.50;1.00
352;DHT22;164;50.784;6.496;2022-10-16T09:09:03;16.60;1.00
352;DHT22;164;50.784;6.496;2022-10-16T09:11:43;16.70;1.00
352;DHT22;164;50.784;6.496;2022-10-16T09:14:30;16.60;1.00
352;DHT22;164;50.784;6.496;2022-10-16T09:17:13;16.70;1.00
352;DHT22;164;50.784;6.496;2022-10-16T09:19:51;16.80;1.00
352;DHT22;164;50.784;6.496;2022-10-16T09:22:21;16.90;1.00
352;DHT22;164;50.784;6.496;2022-10-16T09:24:52;17.00;1.00
352;DHT22;164;50.784;6.496;2022-10-16T09:27:18;17.10;1.00
352;DHT22;164;50.784;6.496;2022-10-16T09:29:46;17.20;1.00
352;DHT22;164;50.784;6.496;2022-10-16T09:32:17;17.30;1.00
352;DHT22;164;50.784;6.496;2022-10-16T09:34:49;17.40;1.00
352;DHT22;164;50.784;6.496;2022-10-16T09:37:18;17.40;1.00
352;DHT22;164;50.784;6.496;2022-10-16T09:39:47;17.60;1.00
352;DHT22;164;50.784;6.496;2022-10-16T09:42:16;17.60;1.00
352;DHT22;164;50.784;6.496;2022-10-16T09:44:47;17.60;1.00
352;DHT22;164;50.784;6.496;2022-10-16T09:47:17;17.70;1.00
352;DHT22;164;50.784;6.496;2022-10-16T09:49:53;17.80;1.00
352;DHT22;164;50.784;6.496;2022-10-16T09:52:23;17.80;1.00
352;DHT22;164;50.784;6.496;2022-10-16T09:54:51;17.80;1.00
352;DHT22;164;50.784;6.496;2022-10-16T09:57:19;17.90;1.00
352;DHT22;164;50.784;6.496;2022-10-16T09:59:48;18.00;1.00
352;DHT22;164;50.784;6.496;2022-10-16T10:02:17;18.10;1.00
352;DHT22;164;50.784;6.496;2022-10-16T10:04:49;18.20;1.00
352;DHT22;164;50.784;6.496;2022-10-16T10:07:21;18.30;1.00
352;DHT22;164;50.784;6.496;2022-10-16T10:09:50;18.30;1.00
352;DHT22;164;50.784;6.496;2022-10-16T10:12:19;18.40;1.00
352;DHT22;164;50.784;6.496;2022-10-16T10:14:47;18.50;1.00
352;DHT22;164;50.784;6.496;2022-10-16T10:17:17;18.50;1.00
352;DHT22;164;50.784;6.496;2022-10-16T10:19:53;18.50;1.00
352;DHT22;164;50.784;6.496;2022-10-16T10:22:29;18.60;1.00
352;DHT22;164;50.784;6.496;2022-10-16T10:24:59;18.60;1.00
352;DHT22;164;50.784;6.496;2022-10-16T10:27:32;18.60;1.00
352;DHT22;164;50.784;6.496;2022-10-16T10:30:06;18.60;1.00
352;DHT22;164;50.784;6.496;2022-10-16T10:32:43;18.60;1.00
352;DHT22;164;50.784;6.496;2022-10-16T10:35:17;18.70;1.00
352;DHT22;164;50.784;6.496;2022-10-16T10:38:00;18.80;1.00
352;DHT22;164;50.784;6.496;2022-10-16T10:40:39;18.90;1.00
352;DHT22;164;50.784;6.496;2022-10-16T10:43:15;19.00;1.00
352;DHT22;164;50.784;6.496;2022-10-16T10:45:47;19.00;1.00
352;DHT22;164;50.784;6.496;2022-10-16T10:48:24;19.10;1.00
352;DHT22;164;50.784;6.496;2022-10-16T10:50:59;19.20;1.00
352;DHT22;164;50.784;6.496;2022-10-16T10:53:36;19.30;1.00
352;DHT22;164;50.784;6.496;2022-10-16T10:56:17;19.40;1.00
352;DHT22;164;50.784;6.496;2022-10-16T10:59:07;19.50;1.00
352;DHT22;164;50.784;6.496;2022-10-16T11:01:41;19.40;1.00
352;DHT22;164;50.784;6.496;2022-10-16T11:04:34;19.50;1.00
352;DHT22;164;50.784;6.496;2022-10-16T11:07:10;19.50;1.00
352;DHT22;164;50.784;6.496;2022-10-16T11:09:41;19.50;1.00
352;DHT22;164;50.784;6.496;2022-10-16T11:12:14;19.60;1.00
352;DHT22;164;50.784;6.496;2022-10-16T11:14:49;19.70;1.00
352;DHT22;164;50.784;6.496;2022-10-16T11:17:21;19.80;1.00
352;DHT22;164;50.784;6.496;2022-10-16T11:19:55;19.90;1.00
352;DHT22;164;50.784;6.496;2022-10-16T11:22:28;20.00;1.00
352;DHT22;164;50.784;6.496;2022-10-16T11:25:04;20.00;1.00
352;DHT22;164;50.784;6.496;2022-10-16T11:27:37;20.10;1.00
352;DHT22;164;50.784;6.496;2022-10-16T11:30:14;20.10;1.00
352;DHT22;164;50.784;6.496;2022-10-16T11:32:52;20.20;1.00
352;DHT22;164;50.784;6.496;2022-10-16T11:35:22;20.20;1.00
352;DHT22;164;50.784;6.496;2022-10-16T11:37:51;20.10;1.00
352;DHT22;164;50.784;6.496;2022-10-16T11:40:24;20.10;1.00
352;DHT22;164;50.784;6.496;2022-10-16T11:42:58;20.20;1.00
352;DHT22;164;50.784;6.496;2022-10-16T11:45:34;20.30;1.00
352;DHT22;164;50.784;6.496;2022-10-16T11:48:08;20.40;1.00
352;DHT22;164;50.784;6.496;2022-10-16T11:50:43;20.40;1.00
352;DHT22;164;50.784;6.496;2022-10-16T11:53:18;20.40;1.00
352;DHT22;164;50.784;6.496;2022-10-16T11:55:49;20.50;1.00
352;DHT22;164;50.784;6.496;2022-10-16T11:58:24;20.60;1.00
352;DHT22;164;50.784;6.496;2022-10-16T12:00:58;20.60;1.00
352;DHT22;164;50.784;6.496;2022-10-16T12:03:29;20.60;1.00
352;DHT22;164;50.784;6.496;2022-10-16T12:06:11;20.50;1.00
352;DHT22;164;50.784;6.496;2022-10-16T12:08:40;20.50;1.00
352;DHT22;164;50.784;6.496;2022-10-16T12:11:24;20.60;1.00
352;DHT22;164;50.784;6.496;2022-10-16T12:14:05;20.70;1.00
352;DHT22;164;50.784;6.496;2022-10-16T12:16:33;20.80;1.00
352;DHT22;164;50.784;6.496;2022-10-16T12:19:11;20.90;1.00
352;DHT22;164;50.784;6.496;2022-10-16T12:21:39;21.10;1.00
352;DHT22;164;50.784;6.496;2022-10-16T12:24:06;21.20;1.00
352;DHT22;164;50.784;6.496;2022-10-16T12:26:38;21.30;1.00
352;DHT22;164;50.784;6.496;2022-10-16T12:29:14;21.30;1.00
352;DHT22;164;50.784;6.496;2022-10-16T12:31:50;21.30;1.00
352;DHT22;164;50.784;6.496;2022-10-16T12:34:22;21.20;1.00
352;DHT22;164;50.784;6.496;2022-10-16T12:36:50;21.20;1.00
352;DHT22;164;50.784;6.496;2022-10-16T12:39:21;21.20;1.00
352;DHT22;164;50.784;6.496;2022-10-16T12:42:00;21.20;1.00
352;DHT22;164;50.784;6.496;2022-10-16T12:44:32;21.20;1.00
352;DHT22;164;50.784;6.496;2022-10-16T12:47:00;21.20;1.00
352;DHT22;164;50.784;6.496;2022-10-16T12:49:34;21.20;1.00
352;DHT22;164;50.784;6.496;2022-10-16T12:52:02;21.20;1.00
352;DHT22;164;50.784;6.496;2022-10-16T12:54:30;21.30;1.00
352;DHT22;164;50.784;6.496;2022-10-16T12:57:17;21.30;1.00
352;DHT22;164;50.784;6.496;2022-10-16T12:59:53;21.40;1.00
352;DHT22;164;50.784;6.496;2022-10-16T13:05:47;21.60;1.00
352;DHT22;164;50.784;6.496;2022-10-16T13:08:30;21.80;1.00
352;DHT22;164;50.784;6.496;2022-10-16T13:11:07;21.90;1.00
352;DHT22;164;50.784;6.496;2022-10-16T13:13:50;22.10;1.00
352;DHT22;164;50.784;6.496;2022-10-16T13:16:27;22.40;1.00
352;DHT22;164;50.784;6.496;2022-10-16T13:19:04;22.70;1.00
352;DHT22;164;50.784;6.496;2022-10-16T13:21:42;22.90;1.00
352;DHT22;164;50.784;6.496;2022-10-16T13:24:23;23.20;1.00
352;DHT22;164;50.784;6.496;2022-10-16T13:26:56;23.30;1.00
352;DHT22;164;50.784;6.496;2022-10-16T13:29:30;23.30;1.00
352;DHT22;164;50.784;6.496;2022-10-16T13:31:58;23.40;1.00
352;DHT22;164;50.784;6.496;2022-10-16T13:34:26;23.50;1.00
352;DHT22;164;50.784;6.496;2022-10-16T13:36:54;23.60;1.00
352;DHT22;164;50.784;6.496;2022-10-16T13:39:23;23.70;1.00
352;DHT22;164;50.784;6.496;2022-10-16T13:42:05;23.70;1.00
352;DHT22;164;50.784;6.496;2022-10-16T13:44:39;24.00;1.00
352;DHT22;164;50.784;6.496;2022-10-16T13:47:15;24.10;1.00
352;DHT22;164;50.784;6.496;2022-10-16T13:49:42;24.20;1.00
352;DHT22;164;50.784;6.496;2022-10-16T13:52:17;24.10;1.00
352;DHT22;164;50.784;6.496;2022-10-16T13:54:45;24.10;1.00
352;DHT22;164;50.784;6.496;2022-10-16T13:57:13;24.00;1.00
352;DHT22;164;50.784;6.496;2022-10-16T13:59:42;23.80;1.00
352;DHT22;164;50.784;6.496;2022-10-16T14:02:19;23.70;1.00
352;DHT22;164;50.784;6.496;2022-10-16T14:04:46;23.60;1.00
352;DHT22;164;50.784;6.496;2022-10-16T14:07:19;23.20;1.00
352;DHT22;164;50.784;6.496;2022-10-16T14:09:48;22.90;1.00
352;DHT22;164;50.784;6.496;2022-10-16T14:12:18;22.70;1.00
352;DHT22;164;50.784;6.496;2022-10-16T14:14:50;22.50;1.00
352;DHT22;164;50.784;6.496;2022-10-16T14:17:19;22.20;1.00
352;DHT22;164;50.784;6.496;2022-10-16T14:20:02;22.10;1.00
352;DHT22;164;50.784;6.496;2022-10-16T14:22:33;22.00;1.00
352;DHT22;164;50.784;6.496;2022-10-16T14:25:01;21.70;1.00
352;DHT22;164;50.784;6.496;2022-10-16T14:27:33;21.50;1.00
352;DHT22;164;50.784;6.496;2022-10-16T14:30:16;21.40;1.00
352;DHT22;164;50.784;6.496;2022-10-16T14:32:54;21.30;1.00
352;DHT22;164;50.784;6.496;2022-10-16T14:35:23;21.40;1.00
352;DHT22;164;50.784;6.496;2022-10-16T14:37:52;21.40;1.00
352;DHT22;164;50.784;6.496;2022-10-16T14:40:25;21.40;1.00
352;DHT22;164;50.784;6.496;2022-10-16T14:42:53;21.50;1.00
352;DHT22;164;50.784;6.496;2022-10-16T14:45:24;21.50;1.00
352;DHT22;164;50.784;6.496;2022-10-16T14:47:53;21.40;1.00
352;DHT22;164;50.784;6.496;2022-10-16T14:50:21;21.40;1.00
352;DHT22;164;50.784;6.496;2022-10-16T14:52:48;21.40;1.00
352;DHT22;164;50.784;6.496;2022-10-16T14:55:16;21.40;1.00
352;DHT22;164;50.784;6.496;2022-10-16T14:57:44;21.30;1.00
352;DHT22;164;50.784;6.496;2022-10-16T15:00:17;21.30;1.00
352;DHT22;164;50.784;6.496;2022-10-16T15:02:46;21.30;1.00
352;DHT22;164;50.784;6.496;2022-10-16T15:05:17;21.30;1.00
352;DHT22;164;50.784;6.496;2022-10-16T15:07:45;21.20;1.00
352;DHT22;164;50.784;6.496;2022-10-16T15:10:12;21.10;1.00
352;DHT22;164;50.784;6.496;2022-10-16T15:12:39;21.10;1.00
352;DHT22;164;50.784;6.496;2022-10-16T15:15:26;21.00;1.00
352;DHT22;164;50.784;6.496;2022-10-16T15:17:58;21.00;1.00
352;DHT22;164;50.784;6.496;2022-10-16T15:20:27;20.90;1.00
352;DHT22;164;50.784;6.496;2022-10-16T15:22:55;20.90;1.00
352;DHT22;164;50.784;6.496;2022-10-16T15:25:35;20.90;1.00
352;DHT22;164;50.784;6.496;2022-10-16T15:28:05;20.80;1.00
352;DHT22;164;50.784;6.496;2022-10-16T15:30:32;20.80;1.00
352;DHT22;164;50.784;6.496;2022-10-16T15:33:02;20.70;1.00
352;DHT22;164;50.784;6.496;2022-10-16T15:35:30;20.60;1.00
352;DHT22;164;50.784;6.496;2022-10-16T15:37:57;20.60;1.00
352;DHT22;164;50.784;6.496;2022-10-16T15:40:24;20.60;1.00
352;DHT22;164;50.784;6.496;2022-10-16T15:42:51;20.60;1.00
352;DHT22;164;50.784;6.496;2022-10-16T15:45:18;20.50;1.00
352;DHT22;164;50.784;6.496;2022-10-16T15:47:46;20.50;1.00
352;DHT22;164;50.784;6.496;2022-10-16T15:50:15;20.50;1.00
352;DHT22;164;50.784;6.496;2022-10-16T15:52:43;20.40;1.00
352;DHT22;164;50.784;6.496;2022-10-16T15:55:11;20.40;1.00
352;DHT22;164;50.784;6.496;2022-10-16T15:57:39;20.30;1.00
352;DHT22;164;50.784;6.496;2022-10-16T16:00:07;20.20;1.00
352;DHT22;164;50.784;6.496;2022-10-16T16:02:35;20.20;1.00
352;DHT22;164;50.784;6.496;2022-10-16T16:05:03;20.10;1.00
352;DHT22;164;50.784;6.496;2022-10-16T16:07:33;20.00;1.00
352;DHT22;164;50.784;6.496;2022-10-16T16:10:02;20.00;1.00
352;DHT22;164;50.784;6.496;2022-10-16T16:12:29;19.90;1.00
352;DHT22;164;50.784;6.496;2022-10-16T16:14:56;19.80;1.00
352;DHT22;164;50.784;6.496;2022-10-16T16:17:23;19.80;1.00
352;DHT22;164;50.784;6.496;2022-10-16T16:19:50;19.70;1.00
352;DHT22;164;50.784;6.496;2022-10-16T16:22:17;19.60;1.00
352;DHT22;164;50.784;6.496;2022-10-16T16:24:45;19.50;1.00
352;DHT22;164;50.784;6.496;2022-10-16T16:27:12;19.50;1.00
352;DHT22;164;50.784;6.496;2022-10-16T16:29:40;19.30;1.00
352;DHT22;164;50.784;6.496;2022-10-16T16:32:07;19.30;1.00
352;DHT22;164;50.784;6.496;2022-10-16T16:34:34;19.20;1.00
352;DHT22;164;50.784;6.496;2022-10-16T16:37:02;19.20;1.00
352;DHT22;164;50.784;6.496;2022-10-16T16:39:29;19.20;1.00
352;DHT22;164;50.784;6.496;2022-10-16T16:41:57;19.40;1.00
352;DHT22;164;50.784;6.496;2022-10-16T16:44:26;19.30;1.00
352;DHT22;164;50.784;6.496;2022-10-16T16:46:53;19.40;1.00
352;DHT22;164;50.784;6.496;2022-10-16T16:49:20;19.40;1.00
352;DHT22;164;50.784;6.496;2022-10-16T16:51:47;19.40;1.00
352;DHT22;164;50.784;6.496;2022-10-16T16:54:14;19.40;1.00
352;DHT22;164;50.784;6.496;2022-10-16T16:56:41;19.40;1.00
352;DHT22;164;50.784;6.496;2022-10-16T16:59:16;19.40;1.00
352;DHT22;164;50.784;6.496;2022-10-16T17:01:45;19.40;1.00
352;DHT22;164;50.784;6.496;2022-10-16T17:04:12;19.40;1.00
352;DHT22;164;50.784;6.496;2022-10-16T17:06:41;19.40;1.00
352;DHT22;164;50.784;6.496;2022-10-16T17:09:09;19.40;1.00
352;DHT22;164;50.784;6.496;2022-10-16T17:11:38;19.30;1.00
352;DHT22;164;50.784;6.496;2022-10-16T17:14:07;19.30;1.00
352;DHT22;164;50.784;6.496;2022-10-16T17:16:38;19.30;1.00